sensor_id;sensor_type;location;lat;lon;timestamp;temperature;humidity
15926;DHT22;8062;53.882;10.642;2023-02-26T00:01:18;0.60;99.90
15926;DHT22;8062;53.882;10.642;2023-02-26T00:02:38;0.60;99.90
15926;DHT22;8062;53.882;10.642;2023-02-26T00:04:00;0.60;99.90
15926;DHT22;8062;53.882;10.642;2023-02-26T00:05:19;0.60;99.90
15926;DHT22;8062;53.882;10.642;2023-02-26T00:06:40;0.60;99.90
15926;DHT22;8062;53.882;10.642;2023-02-26T00:08:10;0.60;99.90
15926;DHT22;8062;53.882;10.642;2023-02-26T00:09:30;0.60;99.90
15926;DHT22;8062;53.882;10.642;2023-02-26T00:10:50;0.60;99.90
15926;DHT22;8062;53.882;10.642;2023-02-26T00:12:10;0.70;99.30
15926;DHT22;8062;53.882;10.642;2023-02-26T00:13:31;0.70;99.90
15926;DHT22;8062;53.882;10.642;2023-02-26T00:14:51;0.70;99.20
15926;DHT22;8062;53.882;10.642;2023-02-26T00:16:30;0.70;99.50
15926;DHT22;8062;53.882;10.642;2023-02-26T00:18:05;0.70;99.50
15926;DHT22;8062;53.882;10.642;2023-02-26T00:19:25;0.60;99.80
15926;DHT22;8062;53.882;10.642;2023-02-26T00:20:44;0.70;99.40
15926;DHT22;8062;53.882;10.642;2023-02-26T00:22:04;0.70;99.70
15926;DHT22;8062;53.882;10.642;2023-02-26T00:23:24;0.70;99.90
15926;DHT22;8062;53.882;10.642;2023-02-26T00:24:43;0.70;99.90
15926;DHT22;8062;53.882;10.642;2023-02-26T00:26:03;0.60;99.90
15926;DHT22;8062;53.882;10.642;2023-02-26T00:27:22;0.60;99.90
15926;DHT22;8062;53.882;10.642;2023-02-26T00:28:43;0.60;99.90
15926;DHT22;8062;53.882;10.642;2023-02-26T00:30:05;0.60;99.90
15926;DHT22;8062;53.882;10.642;2023-02-26T00:31:27;0.60;99.90
15926;DHT22;8062;53.882;10.642;2023-02-26T00:32:46;0.60;99.90
15926;DHT22;8062;53.882;10.642;2023-02-26T00:34:11;0.70;99.80
15926;DHT22;8062;53.882;10.642;2023-02-26T00:35:32;0.70;99.80
15926;DHT22;8062;53.882;10.642;2023-02-26T00:38:35;0.70;99.90
15926;DHT22;8062;53.882;10.642;2023-02-26T00:40:07;0.70;99.90
15926;DHT22;8062;53.882;10.642;2023-02-26T00:41:32;0.70;99.90
15926;DHT22;8062;53.882;10.642;2023-02-26T00:42:52;0.70;99.90
15926;DHT22;8062;53.882;10.642;2023-02-26T00:44:12;0.70;99.90
15926;DHT22;8062;53.882;10.642;2023-02-26T00:45:32;0.80;99.90
15926;DHT22;8062;53.882;10.642;2023-02-26T00:47:11;0.80;99.90
15926;DHT22;8062;53.882;10.642;2023-02-26T00:49:08;0.80;99.90
15926;DHT22;8062;53.882;10.642;2023-02-26T00:50:32;0.80;99.90
15926;DHT22;8062;53.882;10.642;2023-02-26T00:52:01;0.70;99.90
15926;DHT22;8062;53.882;10.642;2023-02-26T00:53:33;0.70;99.90
15926;DHT22;8062;53.882;10.642;2023-02-26T00:54:54;0.70;99.90
15926;DHT22;8062;53.882;10.642;2023-02-26T00:56:14;0.60;99.90
15926;DHT22;8062;53.882;10.642;2023-02-26T00:57:33;0.60;99.90
15926;DHT22;8062;53.882;10.642;2023-02-26T00:58:53;0.60;99.90
15926;DHT22;8062;53.882;10.642;2023-02-26T01:00:13;0.60;99.90
15926;DHT22;8062;53.882;10.642;2023-02-26T01:01:33;0.50;99.90
15926;DHT22;8062;53.882;10.642;2023-02-26T01:02:53;0.50;99.90
15926;DHT22;8062;53.882;10.642;2023-02-26T01:04:15;0.50;99.90
15926;DHT22;8062;53.882;10.642;2023-02-26T01:05:35;0.40;99.90
15926;DHT22;8062;53.882;10.642;2023-02-26T01:06:56;0.40;99.90
15926;DHT22;8062;53.882;10.642;2023-02-26T01:08:36;0.40;99.90
15926;DHT22;8062;53.882;10.642;2023-02-26T01:09:59;0.40;99.90
15926;DHT22;8062;53.882;10.642;2023-02-26T01:11:19;0.40;99.90
15926;DHT22;8062;53.882;10.642;2023-02-26T01:12:39;0.40;99.90
15926;DHT22;8062;53.882;10.642;2023-02-26T01:13:59;0.30;99.90
15926;DHT22;8062;53.882;10.642;2023-02-26T01:15:19;0.30;99.90
15926;DHT22;8062;53.882;10.642;2023-02-26T01:17:02;0.30;99.90
15926;DHT22;8062;53.882;10.642;2023-02-26T01:18:32;0.30;99.90
15926;DHT22;8062;53.882;10.642;2023-02-26T01:20:03;0.20;99.90
15926;DHT22;8062;53.882;10.642;2023-02-26T01:21:32;0.20;99.90
15926;DHT22;8062;53.882;10.642;2023-02-26T01:22:54;0.30;99.90
15926;DHT22;8062;53.882;10.642;2023-02-26T01:24:18;0.20;99.90
15926;DHT22;8062;53.882;10.642;2023-02-26T01:25:55;0.20;99.90
15926;DHT22;8062;53.882;10.642;2023-02-26T01:27:16;0.20;99.90
15926;DHT22;8062;53.882;10.642;2023-02-26T01:28:36;0.20;99.90
15926;DHT22;8062;53.882;10.642;2023-02-26T01:29:57;0.20;99.90
15926;DHT22;8062;53.882;10.642;2023-02-26T01:33:19;0.10;99.90
15926;DHT22;8062;53.882;10.642;2023-02-26T01:34:48;0.10;99.90
15926;DHT22;8062;53.882;10.642;2023-02-26T01:36:13;0.10;99.90
15926;DHT22;8062;53.882;10.642;2023-02-26T01:39:15;0.00;99.90
15926;DHT22;8062;53.882;10.642;2023-02-26T01:42:30;0.00;99.90
15926;DHT22;8062;53.882;10.642;2023-02-26T01:45:31;0.00;99.90
15926;DHT22;8062;53.882;10.642;2023-02-26T01:47:10;0.00;99.90
15926;DHT22;8062;53.882;10.642;2023-02-26T01:48:37;-0.10;99.90
15926;DHT22;8062;53.882;10.642;2023-02-26T01:49:58;-0.10;99.90
15926;DHT22;8062;53.882;10.642;2023-02-26T01:53:20;-0.10;99.90
15926;DHT22;8062;53.882;10.642;2023-02-26T01:54:40;-0.10;99.90
15926;DHT22;8062;53.882;10.642;2023-02-26T01:56:03;-0.10;99.90
15926;DHT22;8062;53.882;10.642;2023-02-26T01:57:24;-0.10;99.90
15926;DHT22;8062;53.882;10.642;2023-02-26T01:58:46;-0.10;99.90
15926;DHT22;8062;53.882;10.642;2023-02-26T02:00:07;-0.20;99.90
15926;DHT22;8062;53.882;10.642;2023-02-26T02:01:32;-0.20;99.90
15926;DHT22;8062;53.882;10.642;2023-02-26T02:02:52;-0.20;99.90
15926;DHT22;8062;53.882;10.642;2023-02-26T02:04:13;-0.20;99.90
15926;DHT22;8062;53.882;10.642;2023-02-26T02:05:40;-0.20;99.90
15926;DHT22;8062;53.882;10.642;2023-02-26T02:07:01;-0.30;99.90
15926;DHT22;8062;53.882;10.642;2023-02-26T02:08:21;-0.30;99.90
15926;DHT22;8062;53.882;10.642;2023-02-26T02:09:41;-0.30;99.90
15926;DHT22;8062;53.882;10.642;2023-02-26T02:11:03;-0.30;99.90
15926;DHT22;8062;53.882;10.642;2023-02-26T02:12:46;-0.40;99.90
15926;DHT22;8062;53.882;10.642;2023-02-26T02:14:17;-0.40;99.90
15926;DHT22;8062;53.882;10.642;2023-02-26T02:15:45;-0.40;99.90
15926;DHT22;8062;53.882;10.642;2023-02-26T02:23:47;-0.40;99.90
15926;DHT22;8062;53.882;10.642;2023-02-26T02:27:07;-0.50;99.90
15926;DHT22;8062;53.882;10.642;2023-02-26T02:32:20;-0.60;99.90
15926;DHT22;8062;53.882;10.642;2023-02-26T02:33:51;-0.70;99.90
15926;DHT22;8062;53.882;10.642;2023-02-26T02:35:19;-0.70;99.90
15926;DHT22;8062;53.882;10.642;2023-02-26T02:36:46;-0.80;99.90
15926;DHT22;8062;53.882;10.642;2023-02-26T02:38:23;-0.80;99.90
15926;DHT22;8062;53.882;10.642;2023-02-26T02:39:54;-0.90;99.90
15926;DHT22;8062;53.882;10.642;2023-02-26T02:41:31;-0.90;99.90
15926;DHT22;8062;53.882;10.642;2023-02-26T02:42:58;-1.00;99.90
15926;DHT22;8062;53.882;10.642;2023-02-26T02:44:22;-1.10;99.90
15926;DHT22;8062;53.882;10.642;2023-02-26T02:45:51;-1.10;99.90
15926;DHT22;8062;53.882;10.642;2023-02-26T02:47:14;-1.10;99.90
15926;DHT22;8062;53.882;10.642;2023-02-26T02:48:53;-1.20;99.90
15926;DHT22;8062;53.882;10.642;2023-02-26T02:52:03;-1.30;99.90
15926;DHT22;8062;53.882;10.642;2023-02-26T02:53:46;-1.40;99.90
15926;DHT22;8062;53.882;10.642;2023-02-26T02:55:27;-1.40;99.90
15926;DHT22;8062;53.882;10.642;2023-02-26T02:57:00;-1.40;99.90
15926;DHT22;8062;53.882;10.642;2023-02-26T02:58:25;-1.50;99.90
15926;DHT22;8062;53.882;10.642;2023-02-26T02:59:53;-1.50;99.90
15926;DHT22;8062;53.882;10.642;2023-02-26T03:01:18;-1.60;99.90
15926;DHT22;8062;53.882;10.642;2023-02-26T03:02:57;-1.60;99.90
15926;DHT22;8062;53.882;10.642;2023-02-26T03:04:18;-1.60;99.90
15926;DHT22;8062;53.882;10.642;2023-02-26T03:05:38;-1.70;99.90
15926;DHT22;8062;53.882;10.642;2023-02-26T03:06:57;-1.70;99.90
15926;DHT22;8062;53.882;10.642;2023-02-26T03:08:21;-1.60;99.90
15926;DHT22;8062;53.882;10.642;2023-02-26T03:09:41;-1.70;99.90
15926;DHT22;8062;53.882;10.642;2023-02-26T03:11:01;-1.70;99.90
15926;DHT22;8062;53.882;10.642;2023-02-26T03:12:20;-1.70;99.90
15926;DHT22;8062;53.882;10.642;2023-02-26T03:13:41;-1.80;99.90
15926;DHT22;8062;53.882;10.642;2023-02-26T03:15:14;-1.80;99.90
15926;DHT22;8062;53.882;10.642;2023-02-26T03:16:59;-1.80;99.90
15926;DHT22;8062;53.882;10.642;2023-02-26T03:18:34;-1.70;99.90
15926;DHT22;8062;53.882;10.642;2023-02-26T03:27:13;-1.80;99.90
15926;DHT22;8062;53.882;10.642;2023-02-26T03:28:44;-1.80;99.90
15926;DHT22;8062;53.882;10.642;2023-02-26T03:30:24;-1.80;99.90
15926;DHT22;8062;53.882;10.642;2023-02-26T03:32:01;-1.80;99.90
15926;DHT22;8062;53.882;10.642;2023-02-26T03:34:12;-1.80;99.90
15926;DHT22;8062;53.882;10.642;2023-02-26T03:35:34;-1.80;99.90
15926;DHT22;8062;53.882;10.642;2023-02-26T03:37:11;-1.80;99.90
15926;DHT22;8062;53.882;10.642;2023-02-26T03:38:43;-1.80;99.90
15926;DHT22;8062;53.882;10.642;2023-02-26T03:40:09;-1.80;99.90
15926;DHT22;8062;53.882;10.642;2023-02-26T03:41:41;-1.80;99.90
15926;DHT22;8062;53.882;10.642;2023-02-26T03:43:23;-1.80;99.90
15926;DHT22;8062;53.882;10.642;2023-02-26T03:45:00;-1.90;99.90
15926;DHT22;8062;53.882;10.642;2023-02-26T03:46:26;-1.80;99.90
15926;DHT22;8062;53.882;10.642;2023-02-26T03:47:50;-1.90;99.90
15926;DHT22;8062;53.882;10.642;2023-02-26T03:49:17;-1.90;99.90
15926;DHT22;8062;53.882;10.642;2023-02-26T03:50:50;-1.90;99.90
15926;DHT22;8062;53.882;10.642;2023-02-26T03:52:20;-1.90;99.90
15926;DHT22;8062;53.882;10.642;2023-02-26T03:54:14;-1.90;99.90
15926;DHT22;8062;53.882;10.642;2023-02-26T03:55:51;-2.00;99.90
15926;DHT22;8062;53.882;10.642;2023-02-26T03:57:27;-2.00;99.90
15926;DHT22;8062;53.882;10.642;2023-02-26T03:59:02;-2.00;99.90
15926;DHT22;8062;53.882;10.642;2023-02-26T04:00:56;-2.10;99.90
15926;DHT22;8062;53.882;10.642;2023-02-26T04:02:21;-2.10;99.90
15926;DHT22;8062;53.882;10.642;2023-02-26T04:03:53;-2.10;99.90
15926;DHT22;8062;53.882;10.642;2023-02-26T04:05:17;-2.10;99.90
15926;DHT22;8062;53.882;10.642;2023-02-26T04:06:38;-2.10;99.90
15926;DHT22;8062;53.882;10.642;2023-02-26T04:07:58;-2.20;99.90
15926;DHT22;8062;53.882;10.642;2023-02-26T04:09:18;-2.20;99.90
15926;DHT22;8062;53.882;10.642;2023-02-26T04:10:45;-2.20;99.90
15926;DHT22;8062;53.882;10.642;2023-02-26T04:12:06;-2.20;99.90
15926;DHT22;8062;53.882;10.642;2023-02-26T04:13:25;-2.20;99.90
15926;DHT22;8062;53.882;10.642;2023-02-26T04:14:46;-2.20;99.90
15926;DHT22;8062;53.882;10.642;2023-02-26T04:16:06;-2.20;99.90
15926;DHT22;8062;53.882;10.642;2023-02-26T04:17:26;-2.30;99.90
15926;DHT22;8062;53.882;10.642;2023-02-26T04:18:46;-2.30;99.90
15926;DHT22;8062;53.882;10.642;2023-02-26T04:20:06;-2.30;99.90
15926;DHT22;8062;53.882;10.642;2023-02-26T04:21:30;-2.30;99.90
15926;DHT22;8062;53.882;10.642;2023-02-26T04:22:50;-2.30;99.90
15926;DHT22;8062;53.882;10.642;2023-02-26T04:24:13;-2.30;99.90
15926;DHT22;8062;53.882;10.642;2023-02-26T04:25:33;-2.30;99.90
15926;DHT22;8062;53.882;10.642;2023-02-26T04:26:54;-2.30;99.90
15926;DHT22;8062;53.882;10.642;2023-02-26T04:28:14;-2.30;99.90
15926;DHT22;8062;53.882;10.642;2023-02-26T04:29:34;-2.30;99.90
15926;DHT22;8062;53.882;10.642;2023-02-26T04:30:55;-2.30;99.90
15926;DHT22;8062;53.882;10.642;2023-02-26T04:32:15;-2.30;99.90
15926;DHT22;8062;53.882;10.642;2023-02-26T04:33:34;-2.30;99.90
15926;DHT22;8062;53.882;10.642;2023-02-26T04:34:54;-2.30;99.90
15926;DHT22;8062;53.882;10.642;2023-02-26T04:36:14;-2.20;99.90
15926;DHT22;8062;53.882;10.642;2023-02-26T04:37:34;-2.20;99.90
15926;DHT22;8062;53.882;10.642;2023-02-26T04:38:54;-2.20;99.90
15926;DHT22;8062;53.882;10.642;2023-02-26T04:40:14;-2.30;99.90
15926;DHT22;8062;53.882;10.642;2023-02-26T04:41:35;-2.20;99.90
15926;DHT22;8062;53.882;10.642;2023-02-26T04:42:55;-2.20;99.90
15926;DHT22;8062;53.882;10.642;2023-02-26T04:44:17;-2.20;99.90
15926;DHT22;8062;53.882;10.642;2023-02-26T04:45:37;-2.10;99.90
15926;DHT22;8062;53.882;10.642;2023-02-26T04:46:57;-2.10;99.90
15926;DHT22;8062;53.882;10.642;2023-02-26T04:48:17;-2.00;99.90
15926;DHT22;8062;53.882;10.642;2023-02-26T04:49:37;-2.00;99.90
15926;DHT22;8062;53.882;10.642;2023-02-26T04:50:56;-1.90;99.90
15926;DHT22;8062;53.882;10.642;2023-02-26T04:52:16;-1.90;99.90
15926;DHT22;8062;53.882;10.642;2023-02-26T04:53:36;-1.90;99.90
15926;DHT22;8062;53.882;10.642;2023-02-26T04:54:56;-1.90;99.90
15926;DHT22;8062;53.882;10.642;2023-02-26T04:56:15;-1.90;99.90
15926;DHT22;8062;53.882;10.642;2023-02-26T04:57:35;-1.90;99.90
15926;DHT22;8062;53.882;10.642;2023-02-26T04:58:55;-2.00;99.90
15926;DHT22;8062;53.882;10.642;2023-02-26T05:00:21;-2.00;99.90
15926;DHT22;8062;53.882;10.642;2023-02-26T05:01:40;-1.90;99.90
15926;DHT22;8062;53.882;10.642;2023-02-26T05:03:00;-2.10;99.90
15926;DHT22;8062;53.882;10.642;2023-02-26T05:04:20;-2.10;99.90
15926;DHT22;8062;53.882;10.642;2023-02-26T05:05:43;-2.10;99.90
15926;DHT22;8062;53.882;10.642;2023-02-26T05:07:03;-2.10;99.90
15926;DHT22;8062;53.882;10.642;2023-02-26T05:08:23;-2.20;99.90
15926;DHT22;8062;53.882;10.642;2023-02-26T05:09:43;-2.20;99.90
15926;DHT22;8062;53.882;10.642;2023-02-26T05:11:03;-2.20;99.90
15926;DHT22;8062;53.882;10.642;2023-02-26T05:12:23;-2.20;99.90
15926;DHT22;8062;53.882;10.642;2023-02-26T05:13:43;-2.20;99.90
15926;DHT22;8062;53.882;10.642;2023-02-26T05:15:03;-2.20;99.90
15926;DHT22;8062;53.882;10.642;2023-02-26T05:16:23;-2.30;99.90
15926;DHT22;8062;53.882;10.642;2023-02-26T05:17:43;-2.30;99.90
15926;DHT22;8062;53.882;10.642;2023-02-26T05:19:03;-2.30;99.90
15926;DHT22;8062;53.882;10.642;2023-02-26T05:20:23;-2.30;99.90
15926;DHT22;8062;53.882;10.642;2023-02-26T05:21:43;-2.30;99.90
15926;DHT22;8062;53.882;10.642;2023-02-26T05:23:02;-2.40;99.90
15926;DHT22;8062;53.882;10.642;2023-02-26T05:24:22;-2.40;99.90
15926;DHT22;8062;53.882;10.642;2023-02-26T05:25:41;-2.40;99.90
15926;DHT22;8062;53.882;10.642;2023-02-26T05:27:01;-2.40;99.90
15926;DHT22;8062;53.882;10.642;2023-02-26T05:28:24;-2.40;99.90
15926;DHT22;8062;53.882;10.642;2023-02-26T05:29:43;-2.40;99.90
15926;DHT22;8062;53.882;10.642;2023-02-26T05:31:05;-2.40;99.90
15926;DHT22;8062;53.882;10.642;2023-02-26T05:32:24;-2.40;99.90
15926;DHT22;8062;53.882;10.642;2023-02-26T05:33:44;-2.50;99.90
15926;DHT22;8062;53.882;10.642;2023-02-26T05:35:04;-2.50;99.90
15926;DHT22;8062;53.882;10.642;2023-02-26T05:36:24;-2.50;99.90
15926;DHT22;8062;53.882;10.642;2023-02-26T05:37:43;-2.50;99.90
15926;DHT22;8062;53.882;10.642;2023-02-26T05:39:03;-2.50;99.90
15926;DHT22;8062;53.882;10.642;2023-02-26T05:40:22;-2.50;99.90
15926;DHT22;8062;53.882;10.642;2023-02-26T05:41:42;-2.40;99.90
15926;DHT22;8062;53.882;10.642;2023-02-26T05:43:02;-2.50;99.90
15926;DHT22;8062;53.882;10.642;2023-02-26T05:44:22;-2.50;99.90
15926;DHT22;8062;53.882;10.642;2023-02-26T05:45:41;-2.50;99.90
15926;DHT22;8062;53.882;10.642;2023-02-26T05:47:01;-2.50;99.90
15926;DHT22;8062;53.882;10.642;2023-02-26T05:48:22;-2.50;99.90
15926;DHT22;8062;53.882;10.642;2023-02-26T05:49:42;-2.50;99.90
15926;DHT22;8062;53.882;10.642;2023-02-26T05:51:01;-2.50;99.90
15926;DHT22;8062;53.882;10.642;2023-02-26T05:52:21;-2.40;99.90
15926;DHT22;8062;53.882;10.642;2023-02-26T05:53:40;-2.40;99.90
15926;DHT22;8062;53.882;10.642;2023-02-26T05:55:00;-2.40;99.90
15926;DHT22;8062;53.882;10.642;2023-02-26T05:56:20;-2.40;99.90
15926;DHT22;8062;53.882;10.642;2023-02-26T05:57:39;-2.40;99.90
15926;DHT22;8062;53.882;10.642;2023-02-26T05:58:59;-2.40;99.90
15926;DHT22;8062;53.882;10.642;2023-02-26T06:00:18;-2.30;99.90
15926;DHT22;8062;53.882;10.642;2023-02-26T06:01:38;-2.40;99.90
15926;DHT22;8062;53.882;10.642;2023-02-26T06:02:58;-2.40;99.90
15926;DHT22;8062;53.882;10.642;2023-02-26T06:04:17;-2.40;99.90
15926;DHT22;8062;53.882;10.642;2023-02-26T06:05:37;-2.40;99.90
15926;DHT22;8062;53.882;10.642;2023-02-26T06:06:56;-2.40;99.90
15926;DHT22;8062;53.882;10.642;2023-02-26T06:08:16;-2.40;99.90
15926;DHT22;8062;53.882;10.642;2023-02-26T06:09:36;-2.40;99.90
15926;DHT22;8062;53.882;10.642;2023-02-26T06:10:55;-2.40;99.90
15926;DHT22;8062;53.882;10.642;2023-02-26T06:12:15;-2.40;99.90
15926;DHT22;8062;53.882;10.642;2023-02-26T06:13:34;-2.40;99.90
15926;DHT22;8062;53.882;10.642;2023-02-26T06:14:54;-2.40;99.90
15926;DHT22;8062;53.882;10.642;2023-02-26T06:16:13;-2.40;99.90
15926;DHT22;8062;53.882;10.642;2023-02-26T06:17:33;-2.40;99.90
15926;DHT22;8062;53.882;10.642;2023-02-26T06:18:53;-2.40;99.90
15926;DHT22;8062;53.882;10.642;2023-02-26T06:20:12;-2.30;99.90
15926;DHT22;8062;53.882;10.642;2023-02-26T06:21:32;-2.40;99.90
15926;DHT22;8062;53.882;10.642;2023-02-26T06:22:51;-2.30;99.90
15926;DHT22;8062;53.882;10.642;2023-02-26T06:24:11;-2.30;99.90
15926;DHT22;8062;53.882;10.642;2023-02-26T06:25:31;-2.30;99.90
15926;DHT22;8062;53.882;10.642;2023-02-26T06:26:50;-2.40;99.90
15926;DHT22;8062;53.882;10.642;2023-02-26T06:28:09;-2.40;99.90
15926;DHT22;8062;53.882;10.642;2023-02-26T06:29:29;-2.40;99.90
15926;DHT22;8062;53.882;10.642;2023-02-26T06:30:51;-2.40;99.90
15926;DHT22;8062;53.882;10.642;2023-02-26T06:32:11;-2.40;99.90
15926;DHT22;8062;53.882;10.642;2023-02-26T06:33:31;-2.40;99.90
15926;DHT22;8062;53.882;10.642;2023-02-26T06:34:50;-2.40;99.90
15926;DHT22;8062;53.882;10.642;2023-02-26T06:36:10;-2.40;99.90
15926;DHT22;8062;53.882;10.642;2023-02-26T06:37:30;-2.40;99.90
15926;DHT22;8062;53.882;10.642;2023-02-26T06:38:50;-2.40;99.90
15926;DHT22;8062;53.882;10.642;2023-02-26T06:40:10;-2.50;99.90
15926;DHT22;8062;53.882;10.642;2023-02-26T06:41:30;-2.50;99.90
15926;DHT22;8062;53.882;10.642;2023-02-26T06:42:49;-2.50;99.90
15926;DHT22;8062;53.882;10.642;2023-02-26T06:44:09;-2.50;99.90
15926;DHT22;8062;53.882;10.642;2023-02-26T06:45:29;-2.40;99.90
15926;DHT22;8062;53.882;10.642;2023-02-26T06:46:49;-2.40;99.90
15926;DHT22;8062;53.882;10.642;2023-02-26T06:48:09;-2.40;99.90
15926;DHT22;8062;53.882;10.642;2023-02-26T06:49:29;-2.40;99.90
15926;DHT22;8062;53.882;10.642;2023-02-26T06:50:48;-2.40;99.90
15926;DHT22;8062;53.882;10.642;2023-02-26T06:52:07;-2.40;99.90
15926;DHT22;8062;53.882;10.642;2023-02-26T06:53:27;-2.40;99.90
15926;DHT22;8062;53.882;10.642;2023-02-26T06:54:46;-2.40;99.90
15926;DHT22;8062;53.882;10.642;2023-02-26T06:56:06;-2.50;99.90
15926;DHT22;8062;53.882;10.642;2023-02-26T06:57:26;-2.50;99.90
15926;DHT22;8062;53.882;10.642;2023-02-26T06:58:45;-2.50;99.90
15926;DHT22;8062;53.882;10.642;2023-02-26T07:00:06;-2.50;99.90
15926;DHT22;8062;53.882;10.642;2023-02-26T07:01:25;-2.50;99.90
15926;DHT22;8062;53.882;10.642;2023-02-26T07:02:45;-2.50;99.90
15926;DHT22;8062;53.882;10.642;2023-02-26T07:04:04;-2.50;99.90
15926;DHT22;8062;53.882;10.642;2023-02-26T07:05:24;-2.50;99.90
15926;DHT22;8062;53.882;10.642;2023-02-26T07:06:43;-2.50;99.90
15926;DHT22;8062;53.882;10.642;2023-02-26T07:08:03;-2.50;99.90
15926;DHT22;8062;53.882;10.642;2023-02-26T07:09:23;-2.50;99.90
15926;DHT22;8062;53.882;10.642;2023-02-26T07:10:43;-2.50;99.90
15926;DHT22;8062;53.882;10.642;2023-02-26T07:12:05;-2.40;99.90
15926;DHT22;8062;53.882;10.642;2023-02-26T07:13:25;-2.50;99.90
15926;DHT22;8062;53.882;10.642;2023-02-26T07:14:45;-2.40;99.90
15926;DHT22;8062;53.882;10.642;2023-02-26T07:16:04;-2.40;99.90
15926;DHT22;8062;53.882;10.642;2023-02-26T07:17:25;-2.30;99.90
15926;DHT22;8062;53.882;10.642;2023-02-26T07:18:45;-2.30;99.90
15926;DHT22;8062;53.882;10.642;2023-02-26T07:20:05;-2.20;99.90
15926;DHT22;8062;53.882;10.642;2023-02-26T07:21:28;-2.20;99.90
15926;DHT22;8062;53.882;10.642;2023-02-26T07:22:48;-2.20;99.90
15926;DHT22;8062;53.882;10.642;2023-02-26T07:24:07;-2.10;99.90
15926;DHT22;8062;53.882;10.642;2023-02-26T07:25:27;-2.00;99.90
15926;DHT22;8062;53.882;10.642;2023-02-26T07:26:47;-2.00;99.90
15926;DHT22;8062;53.882;10.642;2023-02-26T07:28:06;-1.90;99.90
15926;DHT22;8062;53.882;10.642;2023-02-26T07:29:26;-1.90;99.90
15926;DHT22;8062;53.882;10.642;2023-02-26T07:30:46;-1.80;99.90
15926;DHT22;8062;53.882;10.642;2023-02-26T07:32:05;-1.80;99.90
15926;DHT22;8062;53.882;10.642;2023-02-26T07:33:25;-1.70;99.90
15926;DHT22;8062;53.882;10.642;2023-02-26T07:34:46;-1.60;99.90
15926;DHT22;8062;53.882;10.642;2023-02-26T07:36:06;-1.40;99.90
15926;DHT22;8062;53.882;10.642;2023-02-26T07:37:25;-1.30;99.90
15926;DHT22;8062;53.882;10.642;2023-02-26T07:38:45;-1.20;99.90
15926;DHT22;8062;53.882;10.642;2023-02-26T07:40:05;-1.10;99.90
15926;DHT22;8062;53.882;10.642;2023-02-26T07:41:25;-1.00;99.90
15926;DHT22;8062;53.882;10.642;2023-02-26T07:42:44;-1.00;99.90
15926;DHT22;8062;53.882;10.642;2023-02-26T07:44:04;-0.90;99.90
15926;DHT22;8062;53.882;10.642;2023-02-26T07:45:23;-0.80;99.90
15926;DHT22;8062;53.882;10.642;2023-02-26T07:46:43;-0.70;99.90
15926;DHT22;8062;53.882;10.642;2023-02-26T07:48:03;-0.60;99.90
15926;DHT22;8062;53.882;10.642;2023-02-26T07:49:22;-0.50;99.90
15926;DHT22;8062;53.882;10.642;2023-02-26T07:50:43;-0.40;99.90
15926;DHT22;8062;53.882;10.642;2023-02-26T07:52:03;-0.20;99.90
15926;DHT22;8062;53.882;10.642;2023-02-26T07:53:24;-0.10;99.90
15926;DHT22;8062;53.882;10.642;2023-02-26T07:54:43;0.00;99.90
15926;DHT22;8062;53.882;10.642;2023-02-26T07:56:02;0.20;99.90
15926;DHT22;8062;53.882;10.642;2023-02-26T07:57:22;0.20;99.90
15926;DHT22;8062;53.882;10.642;2023-02-26T07:58:42;0.20;99.90
15926;DHT22;8062;53.882;10.642;2023-02-26T08:00:01;0.40;99.90
15926;DHT22;8062;53.882;10.642;2023-02-26T08:01:20;0.30;99.90
15926;DHT22;8062;53.882;10.642;2023-02-26T08:02:40;0.40;99.90
15926;DHT22;8062;53.882;10.642;2023-02-26T08:04:00;0.50;99.90
15926;DHT22;8062;53.882;10.642;2023-02-26T08:05:20;0.60;99.90
15926;DHT22;8062;53.882;10.642;2023-02-26T08:06:39;0.60;99.90
15926;DHT22;8062;53.882;10.642;2023-02-26T08:07:59;0.70;99.90
15926;DHT22;8062;53.882;10.642;2023-02-26T08:09:20;0.90;99.90
15926;DHT22;8062;53.882;10.642;2023-02-26T08:10:40;1.00;99.90
15926;DHT22;8062;53.882;10.642;2023-02-26T08:11:59;1.00;99.90
15926;DHT22;8062;53.882;10.642;2023-02-26T08:13:19;1.20;99.90
15926;DHT22;8062;53.882;10.642;2023-02-26T08:14:38;1.30;99.90
15926;DHT22;8062;53.882;10.642;2023-02-26T08:16:00;1.40;99.90
15926;DHT22;8062;53.882;10.642;2023-02-26T08:17:19;1.40;99.90
15926;DHT22;8062;53.882;10.642;2023-02-26T08:18:38;1.60;99.90
15926;DHT22;8062;53.882;10.642;2023-02-26T08:19:58;1.60;99.90
15926;DHT22;8062;53.882;10.642;2023-02-26T08:21:17;1.70;99.90
15926;DHT22;8062;53.882;10.642;2023-02-26T08:22:37;1.80;99.90
15926;DHT22;8062;53.882;10.642;2023-02-26T08:23:57;1.80;99.90
15926;DHT22;8062;53.882;10.642;2023-02-26T08:25:16;1.80;99.90
15926;DHT22;8062;53.882;10.642;2023-02-26T08:26:36;1.90;99.90
15926;DHT22;8062;53.882;10.642;2023-02-26T08:27:56;2.00;99.90
15926;DHT22;8062;53.882;10.642;2023-02-26T08:29:16;2.00;99.90
15926;DHT22;8062;53.882;10.642;2023-02-26T08:30:36;2.10;99.90
15926;DHT22;8062;53.882;10.642;2023-02-26T08:31:55;2.30;99.90
15926;DHT22;8062;53.882;10.642;2023-02-26T08:33:16;2.40;99.90
15926;DHT22;8062;53.882;10.642;2023-02-26T08:34:35;2.40;99.90
15926;DHT22;8062;53.882;10.642;2023-02-26T08:35:55;2.60;99.90
15926;DHT22;8062;53.882;10.642;2023-02-26T08:37:17;2.50;99.90
15926;DHT22;8062;53.882;10.642;2023-02-26T08:38:36;2.50;99.90
15926;DHT22;8062;53.882;10.642;2023-02-26T08:39:56;2.50;99.60
15926;DHT22;8062;53.882;10.642;2023-02-26T08:41:15;2.50;99.20
15926;DHT22;8062;53.882;10.642;2023-02-26T08:42:36;2.50;99.20
15926;DHT22;8062;53.882;10.642;2023-02-26T08:43:55;2.50;99.10
15926;DHT22;8062;53.882;10.642;2023-02-26T08:45:15;2.50;99.20
15926;DHT22;8062;53.882;10.642;2023-02-26T08:46:35;2.60;99.60
15926;DHT22;8062;53.882;10.642;2023-02-26T08:47:54;2.70;98.80
15926;DHT22;8062;53.882;10.642;2023-02-26T08:49:13;2.70;98.00
15926;DHT22;8062;53.882;10.642;2023-02-26T08:50:33;2.70;98.70
15926;DHT22;8062;53.882;10.642;2023-02-26T08:51:52;2.80;98.90
15926;DHT22;8062;53.882;10.642;2023-02-26T08:53:12;2.90;98.90
15926;DHT22;8062;53.882;10.642;2023-02-26T08:54:32;3.00;99.00
15926;DHT22;8062;53.882;10.642;2023-02-26T08:55:52;3.00;98.20
15926;DHT22;8062;53.882;10.642;2023-02-26T08:57:12;3.10;98.90
15926;DHT22;8062;53.882;10.642;2023-02-26T08:58:31;3.20;98.00
15926;DHT22;8062;53.882;10.642;2023-02-26T08:59:50;3.20;96.80
15926;DHT22;8062;53.882;10.642;2023-02-26T09:01:10;3.30;97.30
15926;DHT22;8062;53.882;10.642;2023-02-26T09:02:30;3.30;97.00
15926;DHT22;8062;53.882;10.642;2023-02-26T09:03:49;3.30;97.60
15926;DHT22;8062;53.882;10.642;2023-02-26T09:05:09;3.40;96.70
15926;DHT22;8062;53.882;10.642;2023-02-26T09:06:29;3.40;96.00
15926;DHT22;8062;53.882;10.642;2023-02-26T09:07:48;3.30;96.10
15926;DHT22;8062;53.882;10.642;2023-02-26T09:09:08;3.30;96.70
15926;DHT22;8062;53.882;10.642;2023-02-26T09:10:29;3.40;97.10
15926;DHT22;8062;53.882;10.642;2023-02-26T09:11:48;3.40;96.80
15926;DHT22;8062;53.882;10.642;2023-02-26T09:13:08;3.50;97.00
15926;DHT22;8062;53.882;10.642;2023-02-26T09:14:28;3.60;96.30
15926;DHT22;8062;53.882;10.642;2023-02-26T09:15:48;3.70;95.80
15926;DHT22;8062;53.882;10.642;2023-02-26T09:17:07;3.70;96.10